Time;durP1;ratioP1;P1;durP2;ratioP2;P2;SDS_P1;SDS_P2;PMS_P1;PMS_P2;Temp;Humidity;BMP_temperature;BMP_pressure;BME280_temperature;BME280_humidity;BME280_pressure;Samples;Min_cycle;Max_cycle;Signal;HPM_P1;HPM_P2
2021/11/06 00:00:34;;;;;;;5.20;3.00;;;;;;;6.29;100.00;101848.09;113557;1191;61972;-78
2021/11/06 00:03:00;;;;;;;9.10;3.30;;;;;;;6.28;100.00;101844.16;113996;1192;60215;-80
2021/11/06 00:06:09;;;;;;;4.80;2.90;;;;;;;6.27;100.00;101840.22;113904;1190;73782;-80
2021/11/06 00:09:03;;;;;;;6.20;2.70;;;;;;;6.26;100.00;101839.40;113801;1193;70757;-79
2021/11/06 00:12:09;;;;;;;;;;;;;;;;;;;;;
2021/11/06 00:15:34;;;;;;;5.30;2.60;;;;;;;6.24;100.00;101837.25;114112;1190;62021;-81
2021/11/06 00:19:01;;;;;;;6.30;2.70;;;;;;;6.23;100.00;101839.59;113863;1192;60946;-81
2021/11/06 00:22:19;;;;;;;;;;;;;;;;;;;;;
2021/11/06 00:25:38;;;;;;;7.40;3.00;;;;;;;6.32;100.00;101840.63;113579;1190;71067;-79
2021/11/06 00:28:47;;;;;;;6.20;2.80;;;;;;;6.38;100.00;101841.61;113673;1192;73887;-80
2021/11/06 00:31:58;;;;;;;5.00;2.90;;;;;;;6.44;100.00;101843.43;113423;1192;61571;-80
2021/11/06 00:35:19;;;;;;;5.70;3.00;;;;;;;6.49;100.00;101842.52;113833;1190;61472;-80
2021/11/06 00:38:08;;;;;;;8.00;2.30;;;;;;;6.53;100.00;101843.22;113796;1190;72551;-80
2021/11/06 00:41:35;;;;;;;6.20;2.70;;;;;;;6.57;99.91;101845.08;113758;1190;71381;-80
2021/11/06 00:44:41;;;;;;;;;;;;;;;;;;;;;
2021/11/06 00:48:01;;;;;;;5.80;2.90;;;;;;;6.64;99.86;101852.97;114047;1190;62291;-81
2021/11/06 00:51:28;;;;;;;9.30;2.60;;;;;;;6.67;99.61;101854.31;113912;1192;60854;-81
2021/11/06 00:54:07;;;;;;;4.50;2.60;;;;;;;6.69;99.67;101857.32;113822;1192;74369;-79
2021/11/06 00:57:16;;;;;;;6.40;3.20;;;;;;;6.67;99.32;101860.09;113535;1193;71209;-80
2021/11/06 01:00:19;;;;;;;;;;;;;;;;;;;;;
2021/11/06 01:03:53;;;;;;;6.20;3.30;;;;;;;6.67;99.04;101855.55;114365;1190;61913;-79
2021/11/06 01:07:03;;;;;;;;;;;;;;;;;;;;;
2021/11/06 01:10:09;;;;;;;;;;;;;;;;;;;;;
2021/11/06 01:12:57;;;;;;;10.80;3.80;;;;;;;6.59;99.19;101862.84;113997;1190;72188;-81
2021/11/06 01:16:25;;;;;;;7.00;3.80;;;;;;;6.58;99.50;101865.52;114118;1190;73078;-80
2021/11/06 01:19:35;;;;;;;8.50;3.70;;;;;;;6.57;99.21;101869.48;113817;1193;61998;-79
2021/11/06 01:22:46;;;;;;;9.50;3.70;;;;;;;6.57;99.41;101867.05;113880;1190;60455;-80
2021/11/06 01:26:03;;;;;;;;;;;;;;;;;;;;;
2021/11/06 01:33:03;;;;;;;;;;;;;;;;;;;;;
2021/11/06 01:36:28;;;;;;;8.30;3.30;;;;;;;6.49;99.61;101859.56;113708;1191;60857;-80
2021/11/06 01:39:45;;;;;;;;;;;;;;;;;;;;;
2021/11/06 01:43:14;;;;;;;4.90;2.20;;;;;;;6.45;99.58;101863.70;114175;1190;74828;-79
2021/11/06 01:46:33;;;;;;;;;;;;;;;;;;;;;
2021/11/06 01:50:03;;;;;;;7.10;3.20;;;;;;;6.45;99.84;101864.08;114058;1190;73356;-79
2021/11/06 01:53:17;;;;;;;;;;;;;;;;;;;;;
2021/11/06 01:56:39;;;;;;;11.20;3.10;;;;;;;6.42;99.68;101870.80;114187;1190;60240;-80
2021/11/06 01:59:59;;;;;;;8.00;3.40;;;;;;;6.42;99.72;101867.80;114489;1191;74659;-79
2021/11/06 02:03:19;;;;;;;7.30;2.60;;;;;;;6.47;99.57;101865.19;114333;1192;70180;-81
2021/11/06 02:06:39;;;;;;;6.30;2.80;;;;;;;6.52;99.31;101864.63;113923;1192;72752;-81
2021/11/06 02:10:07;;;;;;;6.70;2.90;;;;;;;6.57;98.85;101866.69;114530;1190;62820;-80
2021/11/06 02:13:25;;;;;;;9.00;2.80;;;;;;;6.62;98.39;101862.27;113980;1192;61265;-79
2021/11/06 02:16:52;;;;;;;6.60;3.10;;;;;;;6.68;98.18;101860.04;114093;1190;75192;-81
2021/11/06 02:20:17;;;;;;;9.80;3.60;;;;;;;6.72;97.47;101856.92;113993;1184;74128;-80
2021/11/06 02:23:47;;;;;;;6.60;3.10;;;;;;;6.74;97.48;101855.67;114133;1192;74499;-80
2021/11/06 02:26:50;;;;;;;;;;;;;;;;;;;;;
2021/11/06 02:30:08;;;;;;;4.80;2.90;;;;;;;6.75;97.18;101854.56;113635;1190;60141;-81
2021/11/06 02:36:42;;;;;;;5.40;2.60;;;;;;;6.75;96.92;101854.56;114210;1190;71697;-80
2021/11/06 02:40:00;;;;;;;;;;;;;;;;;;;;;
2021/11/06 02:43:20;;;;;;;10.30;4.10;;;;;;;6.74;96.73;101857.58;114277;1193;60769;-80
2021/11/06 02:46:29;;;;;;;;;;;;;;;;;;;;;
2021/11/06 02:49:59;;;;;;;5.00;3.00;;;;;;;6.73;96.69;101855.37;113764;1190;74791;-80
2021/11/06 02:53:36;;;;;;;;;;;;;;;;;;;;;
2021/11/06 02:57:01;;;;;;;;;;;;;;;;;;;;;
2021/11/06 03:00:32;;;;;;;5.60;2.90;;;;;;;6.73;96.08;101856.30;113987;1190;61947;-80
2021/11/06 03:03:50;;;;;;;6.20;2.90;;;;;;;6.71;95.86;101852.94;114023;1192;60143;-79
2021/11/06 03:07:17;;;;;;;7.70;3.60;;;;;;;6.68;95.53;101856.15;114282;1190;73969;-80
2021/11/06 03:10:50;;;;;;;5.40;3.50;;;;;;;6.66;95.58;101854.16;113947;1190;71814;-80
2021/11/06 03:14:18;;;;;;;6.80;3.60;;;;;;;6.64;95.42;101854.86;113781;1192;72716;-80
2021/11/06 03:17:29;;;;;;;;;;;;;;;;;;;;;
2021/11/06 03:20:58;;;;;;;9.10;4.20;;;;;;;6.63;95.46;101860.08;113692;1192;60198;-79
2021/11/06 03:24:14;;;;;;;;;;;;;;;;;;;;;
2021/11/06 03:27:42;;;;;;;6.90;3.10;;;;;;;6.60;94.70;101861.00;113813;1192;71809;-78
2021/11/06 03:30:58;;;;;;;;;;;;;;;;;;;;;
2021/11/06 03:34:01;;;;;;;;;;;;;;;;;;;;;
2021/11/06 03:37:30;;;;;;;8.70;3.50;;;;;;;6.44;94.51;101872.05;113725;1193;60195;-79
2021/11/06 03:40:43;;;;;;;;;;;;;;;;;;;;;
2021/11/06 03:43:57;;;;;;;6.00;2.90;;;;;;;6.34;94.56;101876.91;113994;1192;70849;-79
2021/11/06 03:47:26;;;;;;;8.00;3.40;;;;;;;6.27;94.68;101880.74;113747;1191;72654;-79
2021/11/06 03:50:56;;;;;;;4.30;3.10;;;;;;;6.22;94.97;101883.27;113761;1193;61926;-79
2021/11/06 03:54:24;;;;;;;6.60;2.60;;;;;;;6.18;95.21;101883.55;113711;1192;60049;-82
2021/11/06 03:57:51;;;;;;;3.20;2.10;;;;;;;6.15;95.33;101879.44;113925;1190;74664;-81
2021/11/06 04:00:49;;;;;;;4.90;3.30;;;;;;;6.16;95.56;101886.91;114079;1190;72040;-81
2021/11/06 04:04:18;;;;;;;4.60;3.20;;;;;;;6.18;95.57;101884.61;113858;1192;72588;-80
2021/11/06 04:07:35;;;;;;;;;;;;;;;;;;;;;
2021/11/06 04:11:14;;;;;;;8.30;3.40;;;;;;;6.26;95.41;101877.52;114100;1192;61365;-80
2021/11/06 04:14:34;;;;;;;6.90;3.80;;;;;;;6.34;94.70;101881.30;113322;1192;73888;-79
2021/11/06 04:18:04;;;;;;;6.90;3.50;;;;;;;6.38;94.75;101880.98;113889;1190;70952;-80
2021/11/06 04:21:04;;;;;;;;;;;;;;;;;;;;;
2021/11/06 04:24:32;;;;;;;7.20;3.10;;;;;;;6.44;94.17;101876.86;113865;1192;61946;-80
2021/11/06 04:27:59;;;;;;;5.80;3.00;;;;;;;6.48;94.11;101881.05;113667;1191;60966;-80
2021/11/06 04:31:24;;;;;;;;;;;;;;;;;;;;;
2021/11/06 04:34:42;;;;;;;5.80;4.10;;;;;;;6.58;93.55;101879.98;113722;1191;72282;-80
2021/11/06 04:38:15;;;;;;;9.10;4.20;;;;;;;6.60;93.55;101871.90;112820;1193;72539;-79
2021/11/06 04:41:42;;;;;;;8.60;3.70;;;;;;;6.61;93.26;101876.91;113212;1192;62318;-80
2021/11/06 04:45:09;;;;;;;8.00;3.90;;;;;;;6.63;92.98;101878.67;113817;1191;60334;-80
2021/11/06 04:48:37;;;;;;;9.40;4.40;;;;;;;6.64;92.83;101880.20;113509;1192;74613;-80
2021/11/06 04:51:50;;;;;;;10.60;4.30;;;;;;;6.65;92.46;101890.16;114012;1190;70770;-80
2021/11/06 04:55:18;;;;;;;7.90;3.90;;;;;;;6.66;92.38;101885.29;113782;1190;73872;-80
2021/11/06 04:58:47;;;;;;;7.30;3.10;;;;;;;6.68;92.58;101883.79;113764;1193;62155;-80
2021/11/06 05:02:15;;;;;;;7.10;4.00;;;;;;;6.69;92.59;101884.91;113833;1192;62166;-80
2021/11/06 05:05:30;;;;;;;;;;;;;;;;;;;;;
2021/11/06 05:08:50;;;;;;;;;;;;;;;;;;;;;
2021/11/06 05:11:58;;;;;;;6.30;3.50;;;;;;;6.76;91.52;101884.00;113936;1192;73921;-79
2021/11/06 05:15:16;;;;;;;5.40;3.40;;;;;;;6.77;91.24;101874.44;113558;1191;61995;-80
2021/11/06 05:18:21;;;;;;;;;;;;;;;;;;;;;
2021/11/06 05:21:11;;;;;;;5.90;3.00;;;;;;;6.77;90.65;101877.05;113880;1192;72792;-80
2021/11/06 05:24:37;;;;;;;;;;;;;;;;;;;;;
2021/11/06 05:27:32;;;;;;;;;;;;;;;6.77;90.21;101879.36;113950;1190;73717;-79
2021/11/06 05:30:53;;;;;;;4.70;2.50;;;;;;;6.77;90.41;101882.85;113806;1190;62040;-80
2021/11/06 05:33:43;;;;;;;5.60;4.00;;;;;;;6.75;90.04;101872.27;113769;1190;60147;-80
2021/11/06 05:36:14;;;;;;;8.90;3.60;;;;;;;6.75;90.11;101874.08;114001;1190;73756;-80
2021/11/06 05:39:04;;;;;;;7.90;3.40;;;;;;;6.74;90.16;101868.30;113848;1190;71086;-81
2021/11/06 05:42:10;;;;;;;11.50;3.80;;;;;;;6.73;90.12;101865.39;113726;1183;72350;-80
2021/11/06 05:45:25;;;;;;;;;;;;;;;;;;;;;
2021/11/06 05:48:17;;;;;;;9.70;4.00;;;;;;;6.72;90.72;101867.46;113695;1190;60992;-79
2021/11/06 05:51:26;;;;;;;;;;;;;;;;;;;;;
2021/11/06 05:54:42;;;;;;;;;;;;;;;;;;;;;
2021/11/06 05:57:30;;;;;;;9.30;4.40;;;;;;;6.70;91.53;101867.94;113968;1190;72156;-78
2021/11/06 06:00:42;;;;;;;;;;;;;;;;;;;;;
2021/11/06 06:03:53;;;;;;;;;;;;;;;;;;;;;
2021/11/06 06:06:21;;;;;;;8.50;5.00;;;;;;;6.61;91.98;101867.98;114103;1192;73555;-80
2021/11/06 06:09:19;;;;;;;11.00;4.60;;;;;;;6.57;91.92;101871.05;113941;1192;72063;-78
2021/11/06 06:12:32;;;;;;;12.80;6.40;;;;;;;6.54;92.15;101864.81;114028;1191;73606;-78
2021/11/06 06:15:44;;;;;;;12.10;7.50;;;;;;;6.51;92.31;101868.02;113456;1192;62660;-80
2021/11/06 06:18:54;;;;;;;12.30;8.30;;;;;;;6.48;92.67;101873.70;113700;1190;61904;-79
2021/11/06 06:21:36;;;;;;;;;;;;;;;;;;;;;
2021/11/06 06:24:56;;;;;;;18.60;9.50;;;;;;;6.51;92.91;101877.52;113990;1190;72651;-79
2021/11/06 06:28:23;;;;;;;17.10;9.70;;;;;;;6.58;92.13;101882.10;113587;1190;74480;-79
2021/11/06 06:31:16;;;;;;;16.90;8.90;;;;;;;6.64;91.86;101884.60;113731;1192;62851;-79
2021/11/06 06:34:27;;;;;;;;;;;;;;;;;;;;;
2021/11/06 06:37:45;;;;;;;14.00;8.60;;;;;;;6.71;91.33;101887.16;113953;1190;74625;-80
2021/11/06 06:40:53;;;;;;;;;;;;;;;;;;;;;
2021/11/06 06:43:42;;;;;;;;;;;;;;;;;;;;;
2021/11/06 06:46:44;;;;;;;14.60;7.50;;;;;;;6.77;91.09;101885.99;113681;1190;60631;-82
2021/11/06 06:49:33;;;;;;;13.80;6.80;;;;;;;6.80;91.40;101896.70;114094;1192;61442;-79
2021/11/06 06:52:11;;;;;;;26.90;9.80;;;;;;;6.82;91.27;101893.91;113417;1190;75264;-78
2021/11/06 06:55:19;;;;;;;15.00;8.40;;;;;;;6.84;91.32;101895.46;113572;1190;70844;-79
2021/11/06 06:58:33;;;;;;;14.70;7.30;;;;;;;6.87;90.83;101896.96;113380;1192;72590;-80
2021/11/06 07:01:33;;;;;;;;;;;;;;;;;;;;;
2021/11/06 07:04:07;;;;;;;11.50;6.50;;;;;;;6.92;90.81;101899.77;113595;1190;61513;-79
2021/11/06 07:06:53;;;;;;;;;;;;;;;;;;;;;
2021/11/06 07:09:22;;;;;;;12.90;7.50;;;;;;;6.93;90.58;101901.66;114068;1190;71610;-80
2021/11/06 07:12:04;;;;;;;14.30;7.70;;;;;;;6.93;90.77;101901.42;114245;1192;73938;-79
2021/11/06 07:14:55;;;;;;;11.50;6.40;;;;;;;6.94;90.51;101904.92;114104;1190;63072;-79
2021/11/06 07:17:38;;;;;;;13.30;8.00;;;;;;;6.96;90.38;101901.06;113083;1192;60276;-79
2021/11/06 07:20:11;;;;;;;11.10;5.70;;;;;;;7.00;90.01;101909.93;113798;1193;73943;-78
2021/11/06 07:23:04;;;;;;;13.00;6.90;;;;;;;7.01;89.77;101900.67;113816;1190;71053;-79
2021/11/06 07:26:33;;;;;;;10.90;6.10;;;;;;;7.09;89.93;101910.58;113554;1192;72868;-79
2021/11/06 07:29:48;;;;;;;13.50;7.00;;;;;;;7.21;89.25;101915.10;113623;1193;62006;-79
2021/11/06 07:32:37;;;;;;;13.60;6.70;;;;;;;7.28;88.78;101913.80;114047;1192;60905;-78
2021/11/06 07:35:38;;;;;;;13.30;5.50;;;;;;;7.34;88.71;101914.21;114018;1190;73764;-79
2021/11/06 07:38:30;;;;;;;12.00;4.20;;;;;;;7.40;88.05;101916.55;114097;1191;71441;-78
2021/11/06 07:40:58;;;;;;;8.50;4.90;;;;;;;7.49;87.42;101923.54;113802;1190;72833;-78
2021/11/06 07:43:37;;;;;;;;;;;;;;;;;;;;;
2021/11/06 07:46:32;;;;;;;7.50;4.10;;;;;;;7.62;86.59;101915.62;113987;1192;60767;-80
2021/11/06 07:49:34;;;;;;;8.90;3.60;;;;;;;7.65;86.10;101925.42;114118;1192;75208;-79
2021/11/06 07:52:24;;;;;;;10.90;4.30;;;;;;;7.68;85.36;101918.67;114148;1190;74373;-80
2021/11/06 07:55:06;;;;;;;8.70;4.10;;;;;;;7.68;85.45;101921.62;114172;1190;76077;-79
2021/11/06 07:57:53;;;;;;;;;;;;;;;;;;;;;
2021/11/06 08:00:26;;;;;;;10.60;4.10;;;;;;;7.68;85.62;101922.92;114072;1190;61354;-80
2021/11/06 08:03:32;;;;;;;7.20;3.90;;;;;;;7.68;85.37;101923.40;114047;1190;74665;-79
2021/11/06 08:06:22;;;;;;;11.20;5.30;;;;;;;7.69;85.84;101920.50;113575;1190;71993;-80
2021/11/06 08:09:15;;;;;;;8.20;3.60;;;;;;;7.73;85.46;101924.59;113087;1190;73532;-78
2021/11/06 08:11:42;;;;;;;10.80;4.60;;;;;;;7.78;84.99;101923.34;113340;1190;60279;-78
2021/11/06 08:14:09;;;;;;;6.20;3.60;;;;;;;7.82;84.63;101920.90;113876;1177;61388;-78
2021/11/06 08:16:59;;;;;;;11.90;3.70;;;;;;;7.85;84.42;101915.73;113244;1190;73774;-77
2021/11/06 08:19:28;;;;;;;6.90;3.60;;;;;;;7.91;84.30;101911.85;113378;1190;70818;-77
2021/11/06 08:22:19;;;;;;;8.40;4.10;;;;;;;7.95;83.37;101909.23;113342;1193;72531;-78
2021/11/06 08:25:07;;;;;;;7.70;4.20;;;;;;;7.99;83.60;101905.04;113244;1190;60292;-79
2021/11/06 08:28:00;;;;;;;7.30;4.10;;;;;;;8.03;83.31;101903.98;113610;1190;59941;-78
2021/11/06 08:30:28;;;;;;;8.60;3.90;;;;;;;8.07;83.25;101902.20;113118;1192;72493;-76
2021/11/06 08:33:01;;;;;;;5.10;3.00;;;;;;;8.12;83.04;101904.65;113193;1191;71197;-77
2021/11/06 08:36:19;;;;;;;;;;;;;;;;;;;;;
2021/11/06 08:39:19;;;;;;;7.20;3.40;;;;;;;8.23;82.93;101905.17;113032;1192;60520;-80
2021/11/06 08:42:00;;;;;;;8.70;3.00;;;;;;;8.25;82.11;101901.12;113473;1190;61787;-78
2021/11/06 08:44:55;;;;;;;;;;;;;;;;;;;;;
2021/11/06 08:47:44;;;;;;;7.60;3.60;;;;;;;8.35;82.07;101899.83;113084;1192;71832;-77
2021/11/06 08:51:13;;;;;;;10.60;3.30;;;;;;;8.36;81.48;101892.20;114023;1190;71702;-78
2021/11/06 08:53:57;;;;;;;9.10;3.10;;;;;;;8.37;81.38;101897.04;113429;1190;61152;-79
2021/11/06 08:56:38;;;;;;;7.80;3.90;;;;;;;8.40;81.15;101896.80;113208;1193;60095;-78
2021/11/06 08:59:59;;;;;;;10.00;3.30;;;;;;;8.42;81.05;101901.41;113127;1193;73457;-78
2021/11/06 09:02:27;;;;;;;8.50;3.80;;;;;;;8.39;81.14;101900.04;113001;1192;72006;-76
2021/11/06 09:04:55;;;;;;;5.60;2.90;;;;;;;8.40;80.78;101898.27;112907;1191;71923;-78
2021/11/06 09:07:50;;;;;;;;;;;;;;;;;;;;;
2021/11/06 09:10:20;;;;;;;11.20;3.80;;;;;;;8.42;81.18;101899.14;113890;1190;61252;-77
2021/11/06 09:13:50;;;;;;;;;;;;;;;;;;;;;
2021/11/06 09:16:32;;;;;;;;;;;;;;;;;;;;;
2021/11/06 09:19:36;;;;;;;8.40;2.80;;;;;;;8.48;80.40;101901.94;113295;1193;72884;-79
2021/11/06 09:22:12;;;;;;;4.80;2.50;;;;;;;8.53;80.48;101906.96;113921;1190;61921;-80
2021/11/06 09:24:40;;;;;;;5.40;2.80;;;;;;;8.52;79.65;101907.41;113909;1190;60146;-79
2021/11/06 09:27:31;;;;;;;6.20;3.10;;;;;;;8.51;80.02;101912.67;113358;1191;74353;-77
2021/11/06 09:30:43;;;;;;;5.10;2.60;;;;;;;8.47;80.15;101909.80;113363;1184;70579;-77
2021/11/06 09:33:13;;;;;;;12.40;3.70;;;;;;;8.45;80.16;101910.01;113329;1190;73713;-78
2021/11/06 09:35:50;;;;;;;6.90;3.10;;;;;;;8.41;79.81;101921.23;113374;1190;61725;-77
2021/11/06 09:39:07;;;;;;;;;;;;;;;;;;;;;
2021/11/06 09:42:00;;;;;;;8.40;3.00;;;;;;;8.36;80.36;101918.96;113680;1192;73776;-77
2021/11/06 09:44:30;;;;;;;5.90;2.50;;;;;;;8.34;80.34;101919.03;113306;1190;71064;-77
2021/11/06 09:47:19;;;;;;;;;;;;;;;;;;;;;
2021/11/06 09:50:06;;;;;;;7.60;2.30;;;;;;;8.29;81.07;101918.23;113941;1193;62053;-78
2021/11/06 09:53:18;;;;;;;7.60;2.50;;;;;;;8.26;81.24;101919.68;113215;1192;61316;-80
2021/11/06 09:55:51;;;;;;;6.90;3.00;;;;;;;8.22;81.09;101919.33;113787;1192;74029;-78
2021/11/06 09:58:18;;;;;;;6.60;3.10;;;;;;;8.21;80.97;101921.35;113340;1192;69399;-79
2021/11/06 10:00:47;;;;;;;7.90;2.90;;;;;;;8.22;81.16;101920.16;113358;1192;73510;-78
2021/11/06 10:03:39;;;;;;;7.40;3.00;;;;;;;8.22;81.15;101917.59;113701;1192;62018;-79
2021/11/06 10:06:49;;;;;;;9.50;2.90;;;;;;;8.21;80.73;101919.27;113092;1193;60391;-81
2021/11/06 10:09:55;;;;;;;6.40;2.70;;;;;;;8.15;80.52;101919.54;113468;1193;73612;-80
2021/11/06 10:12:24;;;;;;;5.10;2.90;;;;;;;8.15;80.49;101916.49;113191;1193;71091;-81
2021/11/06 10:15:29;;;;;;;3.80;2.20;;;;;;;8.14;80.12;101919.84;113606;1193;72620;-80
2021/11/06 10:18:14;;;;;;;4.60;2.20;;;;;;;8.13;80.55;101911.80;113689;1193;60735;-77
2021/11/06 10:21:49;;;;;;;5.70;2.50;;;;;;;8.10;80.38;101911.45;113177;1192;60745;-80
2021/11/06 10:23:57;;;;;;;7.30;2.80;;;;;;;8.11;80.21;101911.38;113997;1192;72942;-76
2021/11/06 10:26:39;;;;;;;6.40;2.80;;;;;;;8.11;80.07;101916.84;113168;1190;71144;-78
2021/11/06 10:29:39;;;;;;;6.00;2.20;;;;;;;8.14;80.30;101914.45;113547;1190;72634;-78
2021/11/06 10:32:42;;;;;;;9.10;2.80;;;;;;;8.17;80.32;101908.64;113805;1192;62100;-78
2021/11/06 10:35:46;;;;;;;7.30;3.20;;;;;;;8.16;80.81;101906.91;114034;1192;60127;-78
2021/11/06 10:39:15;;;;;;;6.30;2.30;;;;;;;8.14;80.68;101901.26;113580;1192;73806;-80
2021/11/06 10:42:34;;;;;;;8.00;3.00;;;;;;;8.14;80.65;101903.92;113438;1192;72058;-81
2021/11/06 10:45:56;;;;;;;5.60;2.30;;;;;;;8.15;81.35;101897.20;113334;1191;73616;-80
2021/11/06 10:48:35;;;;;;;9.00;3.30;;;;;;;8.13;81.30;101896.79;113252;1192;61679;-78
2021/11/06 10:51:55;;;;;;;5.90;3.30;;;;;;;8.13;81.40;101891.72;113893;1193;60407;-79
2021/11/06 10:55:02;;;;;;;;;;;;;;;;;;;;;
2021/11/06 10:57:58;;;;;;;;;;;;;;;;;;;;;
2021/11/06 11:00:39;;;;;;;6.90;3.00;;;;;;;8.06;82.37;101890.40;113657;1192;73152;-77
2021/11/06 11:04:10;;;;;;;7.10;3.20;;;;;;;8.02;82.65;101892.11;113165;1191;61810;-79
2021/11/06 11:07:21;;;;;;;6.20;3.20;;;;;;;8.00;83.01;101890.30;113454;1190;60273;-79
2021/11/06 11:11:01;;;;;;;7.60;3.00;;;;;;;7.99;82.56;101893.41;113087;1192;75655;-80
2021/11/06 11:14:28;;;;;;;5.10;2.80;;;;;;;8.01;83.04;101880.73;113659;1190;71087;-79
2021/11/06 11:16:59;;;;;;;;;;;;;;;8.06;82.87;101880.85;113851;1192;72613;-78
2021/11/06 11:19:57;;;;;;;11.20;3.30;;;;;;;8.07;83.04;101881.39;113228;1199;60269;-79
2021/11/06 11:23:07;;;;;;;;;;;;;;;;;;;;;
2021/11/06 11:26:35;;;;;;;;;;;;;;;;;;;;;
2021/11/06 11:29:39;;;;;;;7.50;3.80;;;;;;;8.21;83.09;101863.70;112656;1193;72143;-80
2021/11/06 11:32:06;;;;;;;7.30;2.90;;;;;;;8.26;83.06;101861.50;113396;1194;73675;-78
2021/11/06 11:34:56;;;;;;;8.30;3.60;;;;;;;8.29;83.03;101863.73;112648;1193;60332;-78
2021/11/06 11:38:02;;;;;;;5.40;2.20;;;;;;;8.33;83.44;101852.80;112642;1193;60328;-77
2021/11/06 11:41:19;;;;;;;7.20;3.10;;;;;;;8.37;83.44;101852.50;112858;1193;72798;-80
2021/11/06 11:44:49;;;;;;;7.90;3.60;;;;;;;8.36;83.51;101842.48;112928;1194;70416;-79
2021/11/06 11:47:39;;;;;;;8.20;3.60;;;;;;;8.39;83.81;101843.85;113140;1194;73633;-80
2021/11/06 11:50:35;;;;;;;6.70;3.80;;;;;;;8.38;83.73;101839.48;113042;1194;60234;-79
2021/11/06 11:53:07;;;;;;;6.20;3.00;;;;;;;8.36;83.43;101841.29;112804;1193;60166;-76
2021/11/06 11:56:35;;;;;;;6.80;2.90;;;;;;;8.34;83.56;101835.24;112739;1194;73594;-77
2021/11/06 11:59:54;;;;;;;;;;;;;;;;;;;;;
2021/11/06 12:03:02;;;;;;;;;;;;;;;;;;;;;
2021/11/06 12:06:07;;;;;;;;;;;;;;;;;;;;;
2021/11/06 12:09:14;;;;;;;6.20;2.90;;;;;;;8.30;84.02;101817.86;112618;1193;61353;-79
2021/11/06 12:12:30;;;;;;;7.80;3.40;;;;;;;8.32;83.69;101816.00;112629;1194;75753;-80
2021/11/06 12:15:12;;;;;;;3.90;2.10;;;;;;;8.37;83.19;101814.71;113060;1193;72554;-80
2021/11/06 12:17:44;;;;;;;5.80;3.10;;;;;;;8.39;83.27;101807.35;112807;1193;72696;-79
2021/11/06 12:20:58;;;;;;;4.90;2.80;;;;;;;8.41;83.34;101806.81;112595;1193;61377;-77
2021/11/06 12:23:53;;;;;;;7.20;3.50;;;;;;;8.45;83.06;101803.13;113128;1193;60564;-78
2021/11/06 12:26:22;;;;;;;6.40;3.20;;;;;;;8.52;82.95;101798.10;113154;1193;75532;-78
2021/11/06 12:28:52;;;;;;;5.90;3.60;;;;;;;8.57;82.53;101794.70;113436;1193;71655;-79
2021/11/06 12:31:27;;;;;;;5.10;2.70;;;;;;;8.62;82.24;101789.05;112729;1194;74255;-78
2021/11/06 12:34:00;;;;;;;5.30;2.30;;;;;;;8.67;82.32;101788.89;113431;1193;60297;-81
2021/11/06 12:36:30;;;;;;;6.40;3.30;;;;;;;8.71;81.65;101787.88;112891;1193;60680;-78
2021/11/06 12:39:58;;;;;;;8.10;3.00;;;;;;;8.74;81.85;101786.00;112571;1193;73748;-79
2021/11/06 12:42:48;;;;;;;;;;;;;;;8.79;81.40;101777.27;113297;1192;71635;-77
2021/11/06 12:45:38;;;;;;;3.60;2.50;;;;;;;8.81;81.20;101769.62;113533;1192;72755;-78
2021/11/06 12:48:28;;;;;;;4.80;2.50;;;;;;;8.86;81.16;101769.42;113186;1192;64392;-78
2021/11/06 12:51:59;;;;;;;4.90;2.80;;;;;;;8.89;80.58;101770.73;113539;1192;60273;-79
2021/11/06 12:54:57;;;;;;;4.30;2.60;;;;;;;8.92;80.31;101760.34;113777;1193;72764;-81
2021/11/06 12:58:05;;;;;;;5.40;2.50;;;;;;;8.92;79.89;101763.52;113456;1193;72741;-79
2021/11/06 13:00:55;;;;;;;6.10;2.90;;;;;;;8.92;79.69;101769.19;113267;1190;76454;-77
2021/11/06 13:04:34;;;;;;;7.20;3.10;;;;;;;8.93;79.56;101760.50;113792;1190;62864;-78
2021/11/06 13:07:02;;;;;;;5.30;2.20;;;;;;;8.93;79.49;101766.05;113651;1190;60273;-80
2021/11/06 13:10:12;;;;;;;5.80;1.60;;;;;;;8.93;79.32;101759.95;113785;1190;75235;-77
2021/11/06 13:12:39;;;;;;;7.10;2.60;;;;;;;8.92;79.31;101765.85;113577;1190;71223;-77
2021/11/06 13:15:47;;;;;;;4.80;2.00;;;;;;;8.92;79.39;101763.02;113133;1193;72509;-79
2021/11/06 13:18:38;;;;;;;3.90;2.00;;;;;;;8.89;79.24;101760.41;113068;1196;60246;-79
2021/11/06 13:21:13;;;;;;;5.90;3.00;;;;;;;8.88;79.48;101759.34;113383;1192;60294;-80
2021/11/06 13:23:57;;;;;;;9.30;2.60;;;;;;;8.87;79.54;101753.23;114072;1190;74297;-78
2021/11/06 13:26:34;;;;;;;3.90;1.40;;;;;;;8.89;80.17;101744.27;113752;1190;71846;-78
2021/11/06 13:29:00;;;;;;;8.00;3.00;;;;;;;8.90;79.64;101745.39;113443;1190;72929;-79
2021/11/06 13:31:30;;;;;;;5.90;2.50;;;;;;;8.92;79.92;101744.98;113342;1190;60305;-78
2021/11/06 13:37:56;;;;;;;6.10;2.70;;;;;;;8.96;80.17;101736.52;113375;1193;74955;-76
2021/11/06 13:40:31;;;;;;;5.20;2.50;;;;;;;9.02;79.98;101735.91;113177;1190;70831;-80
2021/11/06 13:44:06;;;;;;;4.60;2.80;;;;;;;9.06;80.21;101729.48;113443;1190;72752;-83
2021/11/06 13:47:09;;;;;;;4.30;2.00;;;;;;;9.08;79.88;101727.73;113237;1191;60191;-77
2021/11/06 13:49:37;;;;;;;4.90;2.00;;;;;;;9.08;79.35;101720.88;113472;1192;60286;-78
2021/11/06 13:52:58;;;;;;;;;;;;;;;;;;;;;
2021/11/06 13:56:27;;;;;;;3.60;1.40;;;;;;;9.13;79.34;101710.52;112973;1190;71197;-79
2021/11/06 13:59:02;;;;;;;16.80;2.40;;;;;;;9.15;78.83;101708.19;113566;1190;72515;-78
2021/11/06 14:02:02;;;;;;;4.20;1.70;;;;;;;9.17;78.97;101703.78;113429;1190;60325;-80
2021/11/06 14:04:31;;;;;;;7.00;2.10;;;;;;;9.21;79.14;101692.61;113435;1190;61713;-79
2021/11/06 14:07:12;;;;;;;7.30;2.60;;;;;;;9.25;78.93;101694.02;113330;1190;73808;-78
2021/11/06 14:10:21;;;;;;;5.10;2.00;;;;;;;9.27;78.47;101695.11;113200;1192;71015;-81
2021/11/06 14:13:31;;;;;;;7.30;2.10;;;;;;;9.30;78.90;101687.94;113261;1193;72771;-80
2021/11/06 14:16:34;;;;;;;4.30;1.70;;;;;;;9.31;78.19;101683.65;113072;1190;62854;-79
2021/11/06 14:19:25;;;;;;;5.80;1.90;;;;;;;9.35;78.37;101677.08;113352;1190;60959;-78
2021/11/06 14:22:39;;;;;;;6.00;2.10;;;;;;;9.38;78.35;101673.79;113206;1190;74817;-79
2021/11/06 14:26:18;;;;;;;6.00;2.60;;;;;;;9.42;78.70;101667.99;113440;1190;71140;-79
2021/11/06 14:29:30;;;;;;;3.10;1.60;;;;;;;9.44;78.60;101657.02;113354;1190;72655;-80
2021/11/06 14:31:57;;;;;;;3.80;2.10;;;;;;;9.46;78.57;101653.41;113302;1190;63294;-80
2021/11/06 14:34:27;;;;;;;3.30;1.40;;;;;;;9.47;78.34;101652.63;113417;1190;61025;-78
2021/11/06 14:37:24;;;;;;;2.90;1.80;;;;;;;9.50;78.40;101646.20;113882;1190;74304;-78
2021/11/06 14:40:25;;;;;;;5.00;1.90;;;;;;;9.50;78.73;101645.29;113974;1190;71492;-81
2021/11/06 14:43:22;;;;;;;4.30;1.90;;;;;;;9.50;78.51;101635.95;113626;1190;72649;-80
2021/11/06 14:46:31;;;;;;;4.00;1.80;;;;;;;9.52;78.57;101626.21;114170;1190;62211;-78
2021/11/06 14:49:13;;;;;;;;;;;;;;;;;;;;;
2021/11/06 14:52:32;;;;;;;5.40;1.80;;;;;;;9.52;78.24;101619.30;113460;1190;73891;-77
2021/11/06 14:55:18;;;;;;;4.30;2.30;;;;;;;9.51;78.66;101618.89;113409;1190;72827;-78
2021/11/06 14:57:55;;;;;;;4.70;2.10;;;;;;;9.51;78.44;101612.34;113348;1190;72764;-80
2021/11/06 15:01:02;;;;;;;8.80;3.30;;;;;;;9.50;78.55;101612.14;113945;1190;62070;-79
2021/11/06 15:04:23;;;;;;;3.70;1.70;;;;;;;9.47;78.79;101604.46;113312;1193;60161;-79
2021/11/06 15:07:31;;;;;;;2.90;1.40;;;;;;;9.43;79.21;101606.07;113701;1190;74293;-78
2021/11/06 15:10:02;;;;;;;2.80;1.50;;;;;;;9.39;78.62;101606.55;113975;1192;71047;-77
2021/11/06 15:13:10;;;;;;;3.00;1.80;;;;;;;9.40;78.86;101593.94;113323;1190;74217;-79
2021/11/06 15:15:38;;;;;;;3.20;1.50;;;;;;;9.39;78.88;101584.73;113418;1190;60734;-78
2021/11/06 15:18:26;;;;;;;3.70;2.20;;;;;;;9.36;78.93;101583.70;113276;1193;60951;-79
2021/11/06 15:21:14;;;;;;;5.20;1.50;;;;;;;9.35;78.83;101584.20;113408;1190;73790;-79
2021/11/06 15:24:23;;;;;;;3.10;1.60;;;;;;;9.34;78.64;101577.42;113302;1192;69711;-81
2021/11/06 15:26:52;;;;;;;3.00;1.40;;;;;;;9.34;78.67;101570.89;113975;1192;73868;-76
2021/11/06 15:29:27;;;;;;;3.30;1.30;;;;;;;9.34;78.66;101566.82;113271;1190;61265;-80
2021/11/06 15:31:57;;;;;;;4.80;1.40;;;;;;;9.33;78.53;101563.34;113883;1192;60039;-78
2021/11/06 15:34:54;;;;;;;;;;;;;;;;;;;;;
2021/11/06 15:38:22;;;;;;;3.30;1.70;;;;;;;9.30;78.90;101555.69;114040;1190;70620;-81
2021/11/06 15:41:49;;;;;;;3.40;1.50;;;;;;;9.29;78.86;101551.90;113914;1192;73605;-78
2021/11/06 15:44:58;;;;;;;6.70;1.80;;;;;;;9.27;78.22;101546.11;113832;1193;61069;-80
2021/11/06 15:48:30;;;;;;;3.00;1.40;;;;;;;9.28;78.42;101543.54;113706;1187;62314;-81